Station: ELLX - 26/09/2017 01:20Z (il y a 25 minutes)
ELLX 260120Z AUTO 04007KT 9999 NCD 11/09 Q1020 NOSIG
Vent du 040º - 7 kt
Visibilité > 10 km
Pas de nuages détectés
Température: +11ºC - Point de rosée: +09ºC - QNH: 1020 hPa
Pas de changement significatif prévu dans les 2 heures qui suivent l'observation